Time;durP1;ratioP1;P1;durP2;ratioP2;P2;SDS_P1;SDS_P2;PMS_P1;PMS_P2;Temp;Humidity;BMP_temperature;BMP_pressure;BME280_temperature;BME280_humidity;BME280_pressure;Samples;Min_cycle;Max_cycle;Signal;HPM_P1;HPM_P2
2022/05/28 03:48:12;;;;;;;25.42;19.60;;;;;;;;;;3506743;28;21098;-78
2022/05/28 03:50:38;;;;;;;30.23;18.92;;;;;;;;;;5105365;28;20032;-78
2022/05/28 03:53:04;;;;;;;25.63;19.50;;;;;;;;;;5085219;28;20046;-82
2022/05/28 03:55:30;;;;;;;32.88;21.38;;;;;;;;;;5080929;28;20080;-81
2022/05/28 03:57:57;;;;;;;24.90;19.88;;;;;;;;;;5085993;28;20015;-79
2022/05/28 04:00:23;;;;;;;32.33;22.50;;;;;;;;;;5073345;28;20031;-77
2022/05/28 04:02:49;;;;;;;30.90;21.42;;;;;;;;;;5080907;28;20111;-77
2022/05/28 04:05:16;;;;;;;30.38;21.80;;;;;;;;;;5060430;28;20048;-79
2022/05/28 04:07:42;;;;;;;31.17;21.13;;;;;;;;;;5080183;28;20024;-79
2022/05/28 04:10:08;;;;;;;32.20;23.25;;;;;;;;;;5068512;28;20062;-78
2022/05/28 04:12:34;;;;;;;37.03;23.67;;;;;;;;;;5086850;28;20021;-77
2022/05/28 04:15:00;;;;;;;30.50;22.80;;;;;;;;;;5077555;28;20020;-80
2022/05/28 04:17:27;;;;;;;32.53;23.13;;;;;;;;;;5082411;28;20024;-80
2022/05/28 04:19:53;;;;;;;39.17;26.15;;;;;;;;;;5097970;28;20012;-79
2022/05/28 04:22:19;;;;;;;36.33;24.33;;;;;;;;;;5087192;28;20033;-79
2022/05/28 04:24:47;;;;;;;39.55;26.38;;;;;;;;;;5080040;28;20016;-80
2022/05/28 04:27:13;;;;;;;37.78;27.23;;;;;;;;;;5058117;28;20040;-80
2022/05/28 04:29:40;;;;;;;41.47;24.98;;;;;;;;;;5065395;28;20162;-79
2022/05/28 04:32:06;;;;;;;39.47;26.23;;;;;;;;;;5069946;28;20019;-82
2022/05/28 04:34:32;;;;;;;38.08;26.55;;;;;;;;;;5082034;28;20039;-81
2022/05/28 04:36:58;;;;;;;42.40;27.65;;;;;;;;;;5076294;28;20430;-80
2022/05/28 04:39:25;;;;;;;36.35;27.92;;;;;;;;;;5068596;28;20114;-80
2022/05/28 04:41:51;;;;;;;38.88;27.10;;;;;;;;;;5083653;28;20069;-81
2022/05/28 04:44:17;;;;;;;42.38;28.63;;;;;;;;;;5070314;28;20028;-80
2022/05/28 04:46:43;;;;;;;44.70;30.80;;;;;;;;;;5064957;28;20033;-84
2022/05/28 04:49:09;;;;;;;51.03;31.00;;;;;;;;;;5066069;28;20032;-81
2022/05/28 04:51:36;;;;;;;40.78;30.38;;;;;;;;;;5091617;28;20032;-82
2022/05/28 04:54:02;;;;;;;42.50;29.52;;;;;;;;;;5077676;28;20040;-80
2022/05/28 04:56:28;;;;;;;45.50;30.95;;;;;;;;;;5079689;28;20028;-78
2022/05/28 04:58:54;;;;;;;35.85;27.92;;;;;;;;;;5070710;28;20023;-81
2022/05/28 05:01:22;;;;;;;43.65;29.27;;;;;;;;;;5088425;28;20024;-80
2022/05/28 05:03:48;;;;;;;36.92;28.10;;;;;;;;;;5080979;28;20989;-79
2022/05/28 05:06:14;;;;;;;37.50;27.08;;;;;;;;;;5084988;28;20119;-79
2022/05/28 05:08:41;;;;;;;39.58;27.83;;;;;;;;;;5070902;28;20031;-79
2022/05/28 05:11:07;;;;;;;39.20;27.55;;;;;;;;;;5072035;28;20638;-78
2022/05/28 05:13:33;;;;;;;37.50;27.33;;;;;;;;;;5087398;28;20016;-79
2022/05/28 05:15:59;;;;;;;33.45;25.27;;;;;;;;;;5091201;28;20069;-82
2022/05/28 05:18:26;;;;;;;32.15;26.05;;;;;;;;;;5090904;28;20022;-78
2022/05/28 05:20:52;;;;;;;38.67;28.98;;;;;;;;;;5092089;28;20016;-79
2022/05/28 05:23:18;;;;;;;37.17;27.60;;;;;;;;;;5092338;28;20115;-81
2022/05/28 05:25:44;;;;;;;35.35;28.52;;;;;;;;;;5087786;28;20028;-79
2022/05/28 05:28:11;;;;;;;42.22;26.27;;;;;;;;;;5099878;28;20021;-79
2022/05/28 05:30:37;;;;;;;41.47;28.60;;;;;;;;;;5082022;28;20032;-79
2022/05/28 05:33:04;;;;;;;37.00;28.13;;;;;;;;;;5065565;28;20024;-79
2022/05/28 05:35:30;;;;;;;30.88;25.60;;;;;;;;;;5084231;28;20020;-80
2022/05/28 05:37:58;;;;;;;41.90;27.75;;;;;;;;;;5071112;28;20012;-80
2022/05/28 05:40:28;;;;;;;35.22;27.65;;;;;;;;;;5096694;28;20008;-81
2022/05/28 05:42:54;;;;;;;35.15;26.05;;;;;;;;;;5098561;28;20016;-79
2022/05/28 05:45:20;;;;;;;44.22;30.35;;;;;;;;;;5081887;28;20032;-79
2022/05/28 05:47:49;;;;;;;36.65;27.98;;;;;;;;;;5097434;28;20066;-78
2022/05/28 05:50:15;;;;;;;34.38;27.67;;;;;;;;;;5092427;28;20093;-79
2022/05/28 05:52:42;;;;;;;39.45;32.00;;;;;;;;;;5096068;28;20027;-80
2022/05/28 05:55:08;;;;;;;41.22;32.15;;;;;;;;;;5080337;28;20020;-80
2022/05/28 05:57:34;;;;;;;41.22;30.95;;;;;;;;;;5072070;28;20106;-80
2022/05/28 06:00:01;;;;;;;38.33;31.13;;;;;;;;;;5061311;28;20017;-79
2022/05/28 06:02:27;;;;;;;37.92;30.17;;;;;;;;;;5079560;28;20043;-79
2022/05/28 06:04:53;;;;;;;40.30;31.20;;;;;;;;;;5079061;28;20044;-78
2022/05/28 06:07:20;;;;;;;46.40;33.25;;;;;;;;;;5088194;28;20469;-80
2022/05/28 06:09:46;;;;;;;41.00;34.75;;;;;;;;;;5066564;28;20097;-82
2022/05/28 06:12:12;;;;;;;44.95;33.40;;;;;;;;;;5057937;28;20020;-81
2022/05/28 06:14:39;;;;;;;42.75;34.08;;;;;;;;;;5085274;28;20533;-81
2022/05/28 06:17:05;;;;;;;46.22;34.60;;;;;;;;;;5089255;28;20027;-81
2022/05/28 06:19:31;;;;;;;43.75;33.92;;;;;;;;;;5080018;28;20063;-81
2022/05/28 06:22:03;;;;;;;44.72;33.45;;;;;;;;;;5076803;28;20017;-81
2022/05/28 06:24:31;;;;;;;50.00;38.28;;;;;;;;;;5072295;28;20058;-82
2022/05/28 06:27:01;;;;;;;45.47;36.70;;;;;;;;;;5080074;28;20063;-82
2022/05/28 06:29:28;;;;;;;48.67;37.17;;;;;;;;;;5071395;28;20020;-82
2022/05/28 06:31:54;;;;;;;45.85;33.33;;;;;;;;;;5080434;28;20013;-82
2022/05/28 06:34:21;;;;;;;38.97;30.20;;;;;;;;;;5074156;28;20046;-81
2022/05/28 06:36:47;;;;;;;39.58;28.02;;;;;;;;;;5078809;28;20020;-82
2022/05/28 06:39:13;;;;;;;39.20;28.83;;;;;;;;;;5088357;28;20178;-82
2022/05/28 06:41:39;;;;;;;38.55;26.83;;;;;;;;;;5076003;28;20111;-81
2022/05/28 06:44:06;;;;;;;34.45;26.05;;;;;;;;;;5073280;28;20031;-82
2022/05/28 06:46:32;;;;;;;33.13;24.77;;;;;;;;;;5084740;28;20472;-81
2022/05/28 06:48:58;;;;;;;37.05;22.73;;;;;;;;;;5055453;28;20428;-81
2022/05/28 06:51:25;;;;;;;26.40;19.15;;;;;;;;;;5055810;28;20027;-81
2022/05/28 06:53:51;;;;;;;24.13;18.33;;;;;;;;;;5080999;28;20023;-82
2022/05/28 06:56:18;;;;;;;21.70;18.55;;;;;;;;;;5073454;28;20044;-81
2022/05/28 06:58:45;;;;;;;20.88;15.77;;;;;;;;;;5082760;28;20016;-80
2022/05/28 07:01:11;;;;;;;21.02;16.30;;;;;;;;;;5071693;28;20020;-81
2022/05/28 07:03:39;;;;;;;25.90;16.98;;;;;;;;;;5087661;28;20016;-84
2022/05/28 07:06:06;;;;;;;25.58;17.15;;;;;;;;;;5075844;28;20031;-82
2022/05/28 07:08:32;;;;;;;23.77;15.93;;;;;;;;;;5070117;28;20028;-82
2022/05/28 07:11:00;;;;;;;27.30;15.68;;;;;;;;;;5084667;28;20055;-82
2022/05/28 07:13:27;;;;;;;25.83;15.60;;;;;;;;;;5067663;28;20017;-82
2022/05/28 07:15:53;;;;;;;25.90;18.05;;;;;;;;;;5088456;28;20385;-82
2022/05/28 07:18:20;;;;;;;24.48;16.80;;;;;;;;;;5091672;28;20027;-81
2022/05/28 07:20:47;;;;;;;20.30;17.00;;;;;;;;;;5082555;28;20021;-83
2022/05/28 07:23:20;;;;;;;23.50;17.40;;;;;;;;;;5095957;28;20030;-82
2022/05/28 07:25:47;;;;;;;22.75;15.13;;;;;;;;;;5080969;28;20024;-82
2022/05/28 07:28:26;;;;;;;27.85;16.70;;;;;;;;;;5097747;28;20024;-81
2022/05/28 07:30:56;;;;;;;20.23;15.75;;;;;;;;;;5078060;28;20050;-80
2022/05/28 07:33:25;;;;;;;21.05;15.65;;;;;;;;;;5091181;28;20025;-80
2022/05/28 07:35:52;;;;;;;24.52;14.57;;;;;;;;;;5074012;28;20019;-81
2022/05/28 07:38:18;;;;;;;21.35;15.60;;;;;;;;;;5091334;28;20017;-82
2022/05/28 07:40:44;;;;;;;20.80;15.93;;;;;;;;;;5070766;28;20095;-81
2022/05/28 07:43:11;;;;;;;26.48;16.15;;;;;;;;;;5083513;28;20024;-81
2022/05/28 07:45:38;;;;;;;20.33;16.23;;;;;;;;;;5097024;28;20474;-80
2022/05/28 07:48:04;;;;;;;24.60;15.85;;;;;;;;;;5073889;28;20025;-80
2022/05/28 07:50:31;;;;;;;22.63;15.80;;;;;;;;;;5082096;28;20052;-80
2022/05/28 07:52:57;;;;;;;21.60;14.60;;;;;;;;;;5068376;28;20020;-81
2022/05/28 07:55:23;;;;;;;24.80;15.60;;;;;;;;;;5079054;28;20020;-80
2022/05/28 07:57:50;;;;;;;18.98;15.75;;;;;;;;;;5062003;28;20016;-81
2022/05/28 08:00:16;;;;;;;20.45;15.63;;;;;;;;;;5080984;28;20027;-79
2022/05/28 08:02:42;;;;;;;18.30;14.75;;;;;;;;;;5077052;28;20016;-78
2022/05/28 08:05:09;;;;;;;27.05;14.18;;;;;;;;;;5086308;28;20031;-80
2022/05/28 08:07:35;;;;;;;21.98;14.88;;;;;;;;;;5083777;28;20024;-79
2022/05/28 08:10:03;;;;;;;19.13;13.75;;;;;;;;;;5066062;28;20020;-79
2022/05/28 08:12:29;;;;;;;19.60;13.93;;;;;;;;;;5087250;28;20059;-79
2022/05/28 08:14:55;;;;;;;19.65;12.57;;;;;;;;;;5079645;28;20012;-81
2022/05/28 08:17:22;;;;;;;19.45;13.27;;;;;;;;;;5087176;28;21103;-77
2022/05/28 08:19:48;;;;;;;18.85;13.55;;;;;;;;;;5083256;28;20051;-78
2022/05/28 08:24:59;;;;;;;18.38;12.98;;;;;;;;;;5077970;28;20069;-80
2022/05/28 08:27:25;;;;;;;15.48;12.70;;;;;;;;;;5071200;28;20122;-79
2022/05/28 08:29:51;;;;;;;15.82;12.45;;;;;;;;;;5088784;28;20015;-79
2022/05/28 08:32:18;;;;;;;15.65;12.50;;;;;;;;;;5062551;28;20054;-81
2022/05/28 08:34:45;;;;;;;13.40;11.18;;;;;;;;;;5097824;28;20113;-79
2022/05/28 08:37:12;;;;;;;18.00;11.38;;;;;;;;;;5100121;28;20491;-80
2022/05/28 08:39:38;;;;;;;17.70;12.70;;;;;;;;;;5100664;28;20016;-79
2022/05/28 08:42:05;;;;;;;15.52;12.27;;;;;;;;;;5083071;28;20020;-79
2022/05/28 08:44:33;;;;;;;18.30;11.63;;;;;;;;;;5083785;28;20016;-80
2022/05/28 08:47:05;;;;;;;14.27;10.85;;;;;;;;;;5079208;28;20035;-81
2022/05/28 08:49:32;;;;;;;16.00;10.80;;;;;;;;;;5099715;28;20052;-79
2022/05/28 08:52:05;;;;;;;17.70;11.02;;;;;;;;;;5077958;28;20020;-79
2022/05/28 08:54:31;;;;;;;17.25;10.50;;;;;;;;;;5070601;28;20088;-78
2022/05/28 08:57:00;;;;;;;19.27;11.07;;;;;;;;;;5078324;28;20019;-79
2022/05/28 08:59:29;;;;;;;17.77;12.82;;;;;;;;;;5070671;28;20021;-79
2022/05/28 09:01:56;;;;;;;15.43;11.03;;;;;;;;;;5064925;28;20027;-79
2022/05/28 09:04:24;;;;;;;16.05;10.25;;;;;;;;;;5076369;28;20012;-80
2022/05/28 09:06:53;;;;;;;16.23;11.43;;;;;;;;;;5078470;28;20036;-83
2022/05/28 09:09:34;;;;;;;16.92;10.95;;;;;;;;;;5072119;28;20013;-79
2022/05/28 09:12:02;;;;;;;22.13;11.48;;;;;;;;;;5058446;28;20028;-79
2022/05/28 09:14:30;;;;;;;17.20;10.77;;;;;;;;;;5075298;28;20021;-78
2022/05/28 09:17:18;;;;;;;16.65;10.43;;;;;;;;;;5074923;28;20029;-79
2022/05/28 09:19:48;;;;;;;17.88;10.88;;;;;;;;;;5041145;28;20013;-77
2022/05/28 09:22:15;;;;;;;16.42;10.88;;;;;;;;;;5075762;28;20034;-78
2022/05/28 09:24:42;;;;;;;15.73;12.00;;;;;;;;;;5078221;28;20464;-79
2022/05/28 09:27:14;;;;;;;22.25;12.35;;;;;;;;;;5079120;28;20123;-78
2022/05/28 09:29:50;;;;;;;13.90;12.50;;;;;;;;;;5075135;28;20039;-81
2022/05/28 09:32:23;;;;;;;17.75;12.82;;;;;;;;;;5056851;28;20024;-81
2022/05/28 09:34:56;;;;;;;14.60;11.02;;;;;;;;;;5075191;28;20086;-80
2022/05/28 09:37:29;;;;;;;27.10;12.32;;;;;;;;;;5056850;28;20481;-81
2022/05/28 09:40:13;;;;;;;20.73;11.32;;;;;;;;;;5075412;28;20020;-81
2022/05/28 09:42:45;;;;;;;15.70;11.43;;;;;;;;;;5074306;28;20546;-80
2022/05/28 09:45:19;;;;;;;15.88;13.02;;;;;;;;;;5074853;28;20017;-81
2022/05/28 09:47:46;;;;;;;17.58;11.57;;;;;;;;;;5056456;28;20032;-80
2022/05/28 09:50:21;;;;;;;15.35;11.82;;;;;;;;;;5058123;28;20048;-81
2022/05/28 09:55:41;;;;;;;16.25;11.77;;;;;;;;;;5076788;28;20091;-79
2022/05/28 09:58:07;;;;;;;20.00;13.55;;;;;;;;;;5058907;28;20067;-80
2022/05/28 10:00:35;;;;;;;18.08;13.15;;;;;;;;;;5076932;28;20013;-80
2022/05/28 10:05:55;;;;;;;17.58;13.30;;;;;;;;;;5075692;28;20039;-80
2022/05/28 10:08:29;;;;;;;19.77;12.60;;;;;;;;;;5075193;28;20016;-80
2022/05/28 10:10:57;;;;;;;21.38;14.95;;;;;;;;;;5076477;28;20021;-81
2022/05/28 10:13:24;;;;;;;18.65;15.25;;;;;;;;;;5074649;28;20029;-81
2022/05/28 10:15:52;;;;;;;20.52;15.68;;;;;;;;;;5056678;28;20028;-82
2022/05/28 10:18:29;;;;;;;19.50;14.43;;;;;;;;;;5076351;28;20484;-81
2022/05/28 10:21:03;;;;;;;19.98;14.75;;;;;;;;;;5075795;28;20032;-80
2022/05/28 10:23:29;;;;;;;15.25;13.63;;;;;;;;;;5076797;28;20111;-80
2022/05/28 10:25:56;;;;;;;19.88;15.57;;;;;;;;;;5059187;28;20092;-81
2022/05/28 10:28:29;;;;;;;22.27;17.08;;;;;;;;;;5076302;28;20020;-80
2022/05/28 10:30:56;;;;;;;18.70;15.43;;;;;;;;;;5074875;28;20008;-80
2022/05/28 10:33:28;;;;;;;27.92;18.20;;;;;;;;;;5074066;28;20044;-80
2022/05/28 10:36:06;;;;;;;22.13;17.48;;;;;;;;;;5071977;28;20009;-80
2022/05/28 10:38:32;;;;;;;21.33;16.05;;;;;;;;;;5072767;28;20028;-79
2022/05/28 10:41:12;;;;;;;23.95;17.25;;;;;;;;;;5074772;28;20097;-80
2022/05/28 10:43:39;;;;;;;23.25;16.25;;;;;;;;;;5075955;28;20025;-80
2022/05/28 10:46:14;;;;;;;25.85;16.73;;;;;;;;;;5075241;28;20039;-80
2022/05/28 10:48:50;;;;;;;25.52;17.60;;;;;;;;;;5075967;28;20079;-80
2022/05/28 10:51:31;;;;;;;23.67;14.70;;;;;;;;;;5058423;28;20024;-81
2022/05/28 10:53:57;;;;;;;17.67;13.30;;;;;;;;;;5075235;28;20028;-82
2022/05/28 10:56:42;;;;;;;23.30;14.52;;;;;;;;;;5056376;28;20567;-80
2022/05/28 10:59:21;;;;;;;18.92;15.32;;;;;;;;;;5056369;28;20017;-80
2022/05/28 11:01:57;;;;;;;19.63;14.85;;;;;;;;;;5074644;28;20048;-82
2022/05/28 11:04:24;;;;;;;18.45;13.43;;;;;;;;;;5075561;28;20021;-81
2022/05/28 11:07:05;;;;;;;21.13;14.23;;;;;;;;;;5073397;28;20431;-82
2022/05/28 11:09:43;;;;;;;16.52;12.90;;;;;;;;;;5055429;28;20013;-80
2022/05/28 11:12:21;;;;;;;23.13;14.55;;;;;;;;;;5075355;28;20028;-81
2022/05/28 11:14:59;;;;;;;19.63;13.02;;;;;;;;;;5055401;28;20035;-80
2022/05/28 11:17:31;;;;;;;19.35;13.45;;;;;;;;;;5074853;28;20016;-80
2022/05/28 11:20:01;;;;;;;17.90;12.77;;;;;;;;;;5054569;28;20037;-82
2022/05/28 11:22:42;;;;;;;21.92;11.48;;;;;;;;;;5055209;28;20027;-82
2022/05/28 11:25:13;;;;;;;16.65;13.52;;;;;;;;;;5054785;28;20123;-82
2022/05/28 11:27:39;;;;;;;17.35;13.27;;;;;;;;;;5060506;28;20147;-81
2022/05/28 11:30:08;;;;;;;20.92;14.32;;;;;;;;;;5064708;28;20017;-81
2022/05/28 11:32:41;;;;;;;13.18;11.57;;;;;;;;;;5066499;28;20017;-80
2022/05/28 11:35:15;;;;;;;17.05;13.18;;;;;;;;;;5062056;28;20031;-80
2022/05/28 11:37:47;;;;;;;18.13;12.25;;;;;;;;;;5073451;28;20012;-80
2022/05/28 11:40:29;;;;;;;18.00;12.80;;;;;;;;;;5073057;28;20020;-82
2022/05/28 11:43:03;;;;;;;17.73;12.57;;;;;;;;;;5059264;28;20473;-82
2022/05/28 11:45:45;;;;;;;17.05;12.98;;;;;;;;;;5058430;28;20125;-81
2022/05/28 11:48:18;;;;;;;18.95;12.80;;;;;;;;;;5076773;28;20016;-83
2022/05/28 11:53:49;;;;;;;19.70;11.93;;;;;;;;;;5081468;28;20550;-82
2022/05/28 11:56:17;;;;;;;14.45;11.77;;;;;;;;;;5077536;28;20226;-81
2022/05/28 11:58:49;;;;;;;24.13;12.10;;;;;;;;;;5078254;28;20056;-81
2022/05/28 12:01:24;;;;;;;18.15;12.35;;;;;;;;;;5058159;28;20373;-81
2022/05/28 12:03:52;;;;;;;18.10;12.48;;;;;;;;;;5077106;28;20477;-80
2022/05/28 12:06:18;;;;;;;19.75;12.48;;;;;;;;;;5058850;28;20033;-80
2022/05/28 12:08:47;;;;;;;21.08;15.32;;;;;;;;;;5058773;28;20020;-82
2022/05/28 12:11:27;;;;;;;21.38;12.98;;;;;;;;;;5058542;28;20055;-80
2022/05/28 12:13:55;;;;;;;20.02;14.45;;;;;;;;;;5075962;28;20504;-81
2022/05/28 12:16:41;;;;;;;21.02;13.27;;;;;;;;;;5076536;28;20032;-81
2022/05/28 12:19:13;;;;;;;20.27;12.95;;;;;;;;;;5076987;28;20084;-81
2022/05/28 12:21:41;;;;;;;18.02;13.15;;;;;;;;;;5077044;28;20020;-80
2022/05/28 12:24:16;;;;;;;20.70;14.00;;;;;;;;;;5077903;28;20021;-80
2022/05/28 12:26:59;;;;;;;20.77;14.82;;;;;;;;;;5078141;28;20427;-80
2022/05/28 12:29:38;;;;;;;19.73;15.07;;;;;;;;;;5078904;28;20386;-82
2022/05/28 12:32:14;;;;;;;20.63;14.15;;;;;;;;;;5060203;28;20084;-81
2022/05/28 12:35:00;;;;;;;18.02;13.55;;;;;;;;;;5059758;28;20419;-81
2022/05/28 12:37:36;;;;;;;18.92;13.90;;;;;;;;;;5060176;28;20462;-81
2022/05/28 12:40:09;;;;;;;25.73;15.25;;;;;;;;;;5076341;28;20380;-81
2022/05/28 12:42:35;;;;;;;22.13;16.73;;;;;;;;;;5076989;28;20048;-81
2022/05/28 12:45:17;;;;;;;24.02;16.80;;;;;;;;;;5076214;28;20044;-80
2022/05/28 12:47:44;;;;;;;22.55;16.67;;;;;;;;;;5075968;28;20047;-81
2022/05/28 12:50:14;;;;;;;18.52;14.32;;;;;;;;;;5059413;28;20049;-81
2022/05/28 12:52:59;;;;;;;23.73;17.00;;;;;;;;;;5059414;28;20025;-81
2022/05/28 12:55:31;;;;;;;20.42;17.30;;;;;;;;;;5058820;28;20027;-80
2022/05/28 12:58:26;;;;;;;18.23;13.88;;;;;;;;;;5078438;28;20020;-80
2022/05/28 13:00:55;;;;;;;21.77;17.52;;;;;;;;;;5058171;28;20481;-81
2022/05/28 13:03:23;;;;;;;21.35;17.08;;;;;;;;;;5077710;28;20012;-80
2022/05/28 13:06:08;;;;;;;20.95;17.45;;;;;;;;;;5061285;28;20032;-80
2022/05/28 13:08:35;;;;;;;23.50;17.08;;;;;;;;;;5076839;28;20027;-79
2022/05/28 13:11:20;;;;;;;26.15;19.42;;;;;;;;;;5061304;28;20024;-81
2022/05/28 13:13:50;;;;;;;17.65;15.55;;;;;;;;;;5059111;28;20025;-80
2022/05/28 13:16:19;;;;;;;24.05;17.45;;;;;;;;;;5075581;28;20016;-80
2022/05/28 13:18:45;;;;;;;21.40;16.65;;;;;;;;;;5075929;28;20031;-81
2022/05/28 13:21:14;;;;;;;22.85;19.98;;;;;;;;;;5075480;28;20027;-81
2022/05/28 13:23:48;;;;;;;24.90;20.13;;;;;;;;;;5057856;28;20016;-81
2022/05/28 13:26:33;;;;;;;25.35;17.75;;;;;;;;;;5076590;28;20492;-81
2022/05/28 13:28:59;;;;;;;26.65;18.75;;;;;;;;;;5076297;28;20430;-80
2022/05/28 13:31:29;;;;;;;22.23;18.27;;;;;;;;;;5076670;28;20016;-82
2022/05/28 13:33:55;;;;;;;22.88;19.20;;;;;;;;;;5057524;28;20047;-81
2022/05/28 13:36:22;;;;;;;21.85;18.67;;;;;;;;;;5075227;28;20095;-82
2022/05/28 13:38:52;;;;;;;27.55;19.35;;;;;;;;;;5076105;28;20021;-82
2022/05/28 13:41:20;;;;;;;27.75;19.95;;;;;;;;;;5058373;28;20024;-81
2022/05/28 13:43:48;;;;;;;34.45;21.02;;;;;;;;;;5057110;28;20111;-82
2022/05/28 13:46:15;;;;;;;33.47;21.17;;;;;;;;;;5073974;28;20081;-83
2022/05/28 13:48:45;;;;;;;31.55;22.00;;;;;;;;;;5074717;28;20020;-82
2022/05/28 13:51:11;;;;;;;31.70;23.83;;;;;;;;;;5075796;28;20046;-82
2022/05/28 13:53:39;;;;;;;26.88;21.58;;;;;;;;;;5074804;28;20024;-82
2022/05/28 13:56:07;;;;;;;34.83;23.60;;;;;;;;;;5054616;28;20028;-82
2022/05/28 13:58:37;;;;;;;34.35;22.50;;;;;;;;;;5055321;28;20025;-81
2022/05/28 14:01:05;;;;;;;27.02;23.52;;;;;;;;;;5074425;28;20166;-82
2022/05/28 14:03:41;;;;;;;32.28;25.27;;;;;;;;;;5055269;28;20110;-82
2022/05/28 14:06:23;;;;;;;32.63;24.23;;;;;;;;;;5054604;28;20075;-82
2022/05/28 14:08:50;;;;;;;29.85;21.88;;;;;;;;;;5073612;28;20033;-81
2022/05/28 14:11:25;;;;;;;34.33;24.95;;;;;;;;;;5071885;28;20124;-82
2022/05/28 14:13:53;;;;;;;29.42;24.90;;;;;;;;;;5072645;28;20469;-82
2022/05/28 14:16:28;;;;;;;31.48;24.85;;;;;;;;;;5074588;28;20009;-83
2022/05/28 14:18:56;;;;;;;34.70;25.33;;;;;;;;;;5061121;28;20024;-82
2022/05/28 14:21:43;;;;;;;38.33;27.85;;;;;;;;;;5074368;28;20373;-82
2022/05/28 14:24:16;;;;;;;30.67;24.23;;;;;;;;;;5064017;28;20020;-82
2022/05/28 14:26:44;;;;;;;36.88;25.67;;;;;;;;;;5086490;28;20027;-81
2022/05/28 14:29:10;;;;;;;32.05;25.42;;;;;;;;;;5088785;28;20017;-81
2022/05/28 14:31:37;;;;;;;34.88;26.85;;;;;;;;;;5093182;28;20088;-82
2022/05/28 14:34:04;;;;;;;28.27;22.80;;;;;;;;;;5094319;28;20005;-81
2022/05/28 14:36:38;;;;;;;31.20;24.92;;;;;;;;;;5093542;28;20013;-81
2022/05/28 14:39:12;;;;;;;34.67;26.65;;;;;;;;;;5075739;28;20036;-80
2022/05/28 14:41:43;;;;;;;29.67;25.27;;;;;;;;;;5091429;28;20028;-81
2022/05/28 14:44:16;;;;;;;32.55;25.98;;;;;;;;;;5090572;28;20005;-80
2022/05/28 14:46:43;;;;;;;42.47;26.95;;;;;;;;;;5091755;28;20047;-80
2022/05/28 14:49:21;;;;;;;29.95;24.90;;;;;;;;;;5074604;28;20109;-83
2022/05/28 14:51:48;;;;;;;33.42;25.75;;;;;;;;;;5093432;28;20027;-82
2022/05/28 14:54:19;;;;;;;34.13;26.63;;;;;;;;;;5084712;28;20005;-81
2022/05/28 14:56:45;;;;;;;30.33;23.23;;;;;;;;;;5078859;28;20031;-81
2022/05/28 14:59:20;;;;;;;39.75;26.23;;;;;;;;;;5059476;28;20090;-80
2022/05/28 15:01:46;;;;;;;30.75;23.95;;;;;;;;;;5059631;28;20028;-82
2022/05/28 15:04:14;;;;;;;26.02;21.70;;;;;;;;;;5058622;28;20016;-81
2022/05/28 15:06:51;;;;;;;31.35;24.30;;;;;;;;;;5076342;28;20111;-80
2022/05/28 15:09:22;;;;;;;31.25;23.92;;;;;;;;;;5077079;28;20017;-82
2022/05/28 15:11:49;;;;;;;38.80;25.60;;;;;;;;;;5058245;28;20089;-82
2022/05/28 15:14:29;;;;;;;32.00;22.92;;;;;;;;;;5076807;28;20020;-81
2022/05/28 15:16:55;;;;;;;30.15;23.13;;;;;;;;;;5041889;28;20055;-81
2022/05/28 15:19:22;;;;;;;34.05;24.65;;;;;;;;;;5074882;28;20059;-82
2022/05/28 15:21:49;;;;;;;28.75;22.20;;;;;;;;;;5072554;28;20047;-82
2022/05/28 15:24:16;;;;;;;32.15;24.13;;;;;;;;;;5076304;28;20040;-80
2022/05/28 15:26:42;;;;;;;33.95;23.58;;;;;;;;;;5077655;28;20446;-82
2022/05/28 15:29:11;;;;;;;30.60;23.08;;;;;;;;;;5077202;28;20050;-82
2022/05/28 15:31:38;;;;;;;33.40;24.33;;;;;;;;;;5080204;28;20019;-82
2022/05/28 15:34:05;;;;;;;26.92;22.35;;;;;;;;;;5059500;28;20023;-82
2022/05/28 15:39:15;;;;;;;27.50;22.60;;;;;;;;;;5081309;28;20082;-82
2022/05/28 15:41:43;;;;;;;31.33;23.77;;;;;;;;;;5090025;28;20016;-83
2022/05/28 15:44:10;;;;;;;33.08;25.20;;;;;;;;;;5084064;28;20043;-83
2022/05/28 15:46:37;;;;;;;29.23;23.63;;;;;;;;;;5080043;28;20067;-81
2022/05/28 15:49:07;;;;;;;39.55;25.83;;;;;;;;;;5089152;28;20071;-88
2022/05/28 15:51:33;;;;;;;40.70;26.65;;;;;;;;;;5077743;28;20111;-85
2022/05/28 15:53:59;;;;;;;34.35;26.63;;;;;;;;;;5094129;28;20099;-84
2022/05/28 15:56:26;;;;;;;35.13;26.98;;;;;;;;;;5082742;28;20027;-82
2022/05/28 15:58:52;;;;;;;39.85;26.23;;;;;;;;;;5090794;28;20007;-84
2022/05/28 16:01:18;;;;;;;37.60;26.75;;;;;;;;;;5094970;28;20034;-83
2022/05/28 16:03:45;;;;;;;32.83;26.42;;;;;;;;;;5095107;28;20099;-85
2022/05/28 16:06:19;;;;;;;33.53;27.38;;;;;;;;;;5094303;28;20073;-83
2022/05/28 16:08:45;;;;;;;37.80;28.20;;;;;;;;;;5095017;28;20020;-83
2022/05/28 16:11:12;;;;;;;32.22;25.52;;;;;;;;;;5095171;28;20008;-84
2022/05/28 16:13:39;;;;;;;37.92;26.45;;;;;;;;;;5077018;28;20116;-83
2022/05/28 16:16:05;;;;;;;33.13;26.42;;;;;;;;;;5096734;28;20016;-81
2022/05/28 16:18:31;;;;;;;37.60;28.25;;;;;;;;;;5076992;28;20012;-85
2022/05/28 16:20:58;;;;;;;39.80;27.15;;;;;;;;;;5097409;28;20050;-81
2022/05/28 16:23:24;;;;;;;36.28;29.17;;;;;;;;;;5100860;28;20012;-81
2022/05/28 16:25:50;;;;;;;40.42;30.45;;;;;;;;;;5098832;28;20020;-82
2022/05/28 16:28:16;;;;;;;40.45;30.00;;;;;;;;;;5077770;28;20027;-82
2022/05/28 16:30:43;;;;;;;38.35;28.55;;;;;;;;;;5076759;28;20038;-82
2022/05/28 16:33:09;;;;;;;39.78;30.85;;;;;;;;;;5077097;28;20024;-84
2022/05/28 16:35:35;;;;;;;44.70;32.35;;;;;;;;;;5094994;28;20440;-84
2022/05/28 16:38:02;;;;;;;35.08;27.60;;;;;;;;;;5096029;28;20016;-82
2022/05/28 16:40:28;;;;;;;37.83;29.40;;;;;;;;;;5095679;28;20476;-84
2022/05/28 16:42:55;;;;;;;39.83;28.30;;;;;;;;;;5077736;28;20008;-82
2022/05/28 16:45:23;;;;;;;45.53;29.33;;;;;;;;;;5095877;28;20396;-83
2022/05/28 16:47:49;;;;;;;45.20;30.02;;;;;;;;;;5095963;28;20028;-84
2022/05/28 16:50:16;;;;;;;35.70;28.85;;;;;;;;;;5097175;28;20056;-84
2022/05/28 16:52:42;;;;;;;35.22;29.88;;;;;;;;;;5097174;28;20032;-83
2022/05/28 16:55:09;;;;;;;37.47;29.73;;;;;;;;;;5097385;28;20169;-81
2022/05/28 16:57:36;;;;;;;39.78;32.03;;;;;;;;;;5078627;28;20027;-82
2022/05/28 17:00:03;;;;;;;46.17;34.40;;;;;;;;;;5096478;28;20050;-82
2022/05/28 17:02:30;;;;;;;44.65;33.83;;;;;;;;;;5096086;28;20051;-81
2022/05/28 17:04:57;;;;;;;50.30;35.13;;;;;;;;;;5095858;28;20022;-82
2022/05/28 17:07:23;;;;;;;49.22;34.30;;;;;;;;;;5094304;28;20032;-84
2022/05/28 17:09:50;;;;;;;48.95;37.40;;;;;;;;;;5094347;28;20103;-82
2022/05/28 17:12:18;;;;;;;51.80;38.45;;;;;;;;;;5094254;28;20433;-84
2022/05/28 17:14:44;;;;;;;51.55;40.33;;;;;;;;;;5094406;28;20016;-82
2022/05/28 17:17:10;;;;;;;48.15;38.08;;;;;;;;;;5093806;28;20020;-82
2022/05/28 17:19:36;;;;;;;53.83;41.38;;;;;;;;;;5093401;28;20069;-84
2022/05/28 17:22:03;;;;;;;51.88;37.70;;;;;;;;;;5075284;28;20028;-85
2022/05/28 17:24:30;;;;;;;61.53;40.90;;;;;;;;;;5094161;28;20005;-84
2022/05/28 17:26:59;;;;;;;58.15;41.50;;;;;;;;;;5097561;28;20032;-82
2022/05/28 17:29:30;;;;;;;57.05;40.58;;;;;;;;;;5097308;28;20059;-83
2022/05/28 17:31:57;;;;;;;52.85;37.85;;;;;;;;;;5076151;28;20020;-82
2022/05/28 17:34:24;;;;;;;49.47;36.63;;;;;;;;;;5076385;28;20016;-81
2022/05/28 17:36:51;;;;;;;47.88;36.60;;;;;;;;;;5094355;28;20081;-82
2022/05/28 17:39:18;;;;;;;47.58;35.58;;;;;;;;;;5094471;28;20019;-84
2022/05/28 17:41:44;;;;;;;50.05;38.15;;;;;;;;;;5099259;28;20077;-84
2022/05/28 17:44:10;;;;;;;48.20;37.30;;;;;;;;;;5103769;28;20012;-82
2022/05/28 17:46:37;;;;;;;47.50;37.58;;;;;;;;;;5102035;28;20431;-82
2022/05/28 17:49:05;;;;;;;51.95;35.88;;;;;;;;;;5085109;28;20055;-81
2022/05/28 17:51:32;;;;;;;48.15;36.53;;;;;;;;;;5077619;28;20024;-83
2022/05/28 17:53:58;;;;;;;47.25;34.78;;;;;;;;;;5091977;28;20024;-83
2022/05/28 17:56:25;;;;;;;44.92;33.92;;;;;;;;;;5093695;28;20028;-84
2022/05/28 17:58:51;;;;;;;43.55;33.20;;;;;;;;;;5075206;28;20016;-83
2022/05/28 18:01:29;;;;;;;41.60;35.63;;;;;;;;;;5094662;28;20024;-81
2022/05/28 18:03:55;;;;;;;49.28;37.90;;;;;;;;;;5074718;28;20016;-83
2022/05/28 18:06:23;;;;;;;44.65;34.30;;;;;;;;;;5093700;28;20387;-82
2022/05/28 18:08:51;;;;;;;43.70;33.05;;;;;;;;;;5076658;28;20081;-82
2022/05/28 18:11:17;;;;;;;41.28;31.33;;;;;;;;;;5076260;28;20096;-80
2022/05/28 18:13:45;;;;;;;42.90;33.22;;;;;;;;;;5093584;28;20055;-80
2022/05/28 18:16:29;;;;;;;38.75;30.88;;;;;;;;;;5093110;28;20016;-84
2022/05/28 18:19:00;;;;;;;42.15;33.10;;;;;;;;;;5093139;28;20012;-82
2022/05/28 18:21:31;;;;;;;41.90;32.15;;;;;;;;;;5074739;28;20061;-83
2022/05/28 18:23:57;;;;;;;39.00;30.80;;;;;;;;;;5093350;28;20099;-82
2022/05/28 18:26:23;;;;;;;34.90;29.58;;;;;;;;;;5074722;28;20035;-82
2022/05/28 18:28:50;;;;;;;36.15;29.17;;;;;;;;;;5074896;28;20020;-83